createdAt,value
2018-01-30T00:00:19.687Z,16.25
2018-01-30T00:02:47.950Z,20.33
2018-01-30T00:05:16.109Z,13.00
2018-01-30T00:07:44.249Z,13.57
2018-01-30T00:10:12.536Z,12.35
2018-01-30T00:12:40.642Z,15.82
2018-01-30T00:15:08.921Z,20.75
2018-01-30T00:17:37.254Z,17.15
2018-01-30T00:20:05.695Z,15.73
2018-01-30T00:22:34.037Z,13.68
2018-01-30T00:25:02.225Z,17.83
2018-01-30T00:27:30.452Z,16.20
2018-01-30T00:29:58.810Z,18.90
2018-01-30T00:32:27.115Z,16.45
2018-01-30T00:34:55.257Z,14.63
2018-01-30T00:37:24.469Z,17.73
2018-01-30T00:39:52.936Z,13.85
2018-01-30T00:42:21.005Z,15.93
2018-01-30T00:44:49.198Z,14.15
2018-01-30T00:47:17.399Z,15.95
2018-01-30T00:49:45.717Z,15.73
2018-01-30T00:52:13.897Z,14.50
2018-01-30T00:54:42.122Z,16.42
2018-01-30T00:57:10.181Z,16.35
2018-01-30T00:59:38.373Z,16.23
2018-01-30T01:02:06.464Z,15.90
2018-01-30T01:04:34.759Z,15.05
2018-01-30T01:07:03.074Z,12.70
2018-01-30T01:09:31.217Z,16.45
2018-01-30T01:11:59.538Z,16.90
2018-01-30T01:14:27.792Z,19.62
2018-01-30T01:16:56.061Z,15.57
2018-01-30T01:19:24.236Z,13.62
2018-01-30T01:21:52.329Z,15.82
2018-01-30T01:24:21.314Z,13.35
2018-01-30T01:26:49.439Z,13.30
2018-01-30T01:29:17.729Z,11.57
2018-01-30T01:31:46.834Z,16.33
2018-01-30T01:34:15.087Z,14.02
2018-01-30T01:36:43.291Z,18.67
2018-01-30T01:39:11.479Z,16.62
2018-01-30T01:41:39.689Z,11.80
2018-01-30T01:44:08.013Z,26.02
2018-01-30T01:46:36.613Z,16.00
2018-01-30T01:49:04.829Z,17.77
2018-01-30T01:51:33.191Z,14.52
2018-01-30T01:54:02.232Z,15.52
2018-01-30T01:56:30.528Z,15.13
2018-01-30T01:58:59.015Z,17.25
2018-01-30T02:01:27.255Z,16.27
2018-01-30T02:03:55.313Z,15.48
2018-01-30T02:06:23.334Z,17.27
2018-01-30T02:08:51.415Z,12.15
2018-01-30T02:11:21.123Z,19.80
2018-01-30T02:13:49.096Z,12.23
2018-01-30T02:16:17.364Z,14.13
2018-01-30T02:18:45.440Z,17.27
2018-01-30T02:21:13.594Z,13.05
2018-01-30T02:23:41.567Z,11.25
2018-01-30T02:26:09.851Z,17.00
2018-01-30T02:28:38.166Z,16.70
2018-01-30T02:31:06.382Z,18.77
2018-01-30T02:33:34.578Z,13.38
2018-01-30T02:36:02.801Z,14.55
2018-01-30T02:38:30.916Z,12.32
2018-01-30T02:40:59.185Z,12.82
2018-01-30T02:43:28.018Z,12.07
2018-01-30T02:45:57.415Z,14.57
2018-01-30T02:48:25.671Z,11.12
2018-01-30T02:50:54.272Z,15.15
2018-01-30T02:53:22.370Z,14.48
2018-01-30T02:55:50.603Z,19.15
2018-01-30T02:58:18.864Z,21.55
2018-01-30T03:00:47.196Z,15.82
2018-01-30T03:03:15.367Z,22.83
2018-01-30T03:05:43.557Z,16.30
2018-01-30T03:10:44.945Z,13.77
2018-01-30T03:13:13.340Z,14.98
2018-01-30T03:15:41.518Z,16.12
2018-01-30T03:18:10.757Z,12.73
2018-01-30T03:20:39.317Z,15.05
2018-01-30T03:23:07.414Z,16.62
2018-01-30T03:25:35.657Z,13.52
2018-01-30T03:28:04.044Z,14.10
2018-01-30T03:30:32.277Z,13.98
2018-01-30T03:33:00.429Z,16.77
2018-01-30T03:35:28.635Z,12.25
2018-01-30T03:37:56.837Z,12.52
2018-01-30T03:40:25.021Z,18.77
2018-01-30T03:42:53.005Z,11.80
2018-01-30T03:45:21.295Z,17.85
2018-01-30T03:47:49.606Z,12.40
2018-01-30T03:50:18.118Z,21.77
2018-01-30T03:52:46.504Z,11.52
2018-01-30T03:55:14.911Z,10.73
2018-01-30T03:57:43.308Z,17.33
2018-01-30T04:00:12.127Z,17.30
2018-01-30T04:02:40.608Z,10.50
2018-01-30T04:05:08.941Z,16.62
2018-01-30T04:07:37.422Z,10.30
2018-01-30T04:10:05.898Z,11.95
2018-01-30T04:12:34.313Z,11.18
2018-01-30T04:15:02.613Z,10.13
2018-01-30T04:17:30.905Z,11.95
2018-01-30T04:20:00.882Z,11.18
2018-01-30T04:22:29.127Z,14.10
2018-01-30T04:24:57.312Z,10.93
2018-01-30T04:27:25.513Z,12.60
2018-01-30T04:29:53.505Z,11.18
2018-01-30T04:32:21.699Z,13.60
2018-01-30T04:34:50.218Z,11.52
2018-01-30T04:37:18.694Z,17.40
2018-01-30T04:39:46.898Z,12.37
2018-01-30T04:42:15.164Z,11.40
2018-01-30T04:44:43.430Z,16.92
2018-01-30T04:47:11.807Z,11.73
2018-01-30T04:49:40.023Z,13.88
2018-01-30T04:52:08.184Z,11.30
2018-01-30T04:54:36.321Z,12.37
2018-01-30T04:57:04.674Z,12.13
2018-01-30T04:59:32.700Z,11.35
2018-01-30T05:02:01.075Z,12.93
2018-01-30T05:04:29.179Z,9.15
2018-01-30T05:06:57.499Z,9.90
2018-01-30T05:09:25.722Z,12.07
2018-01-30T05:11:54.142Z,17.27
2018-01-30T05:14:22.544Z,25.88
2018-01-30T05:16:50.836Z,25.12
2018-01-30T05:19:18.984Z,27.90
2018-01-30T05:21:47.715Z,27.30
2018-01-30T05:24:15.934Z,21.27
2018-01-30T05:26:44.235Z,25.83
2018-01-30T05:29:12.632Z,30.12
2018-01-30T05:31:40.929Z,38.92
2018-01-30T05:34:09.320Z,28.73
2018-01-30T05:36:37.479Z,31.27
2018-01-30T05:39:05.515Z,28.73
2018-01-30T05:41:33.836Z,26.83
2018-01-30T05:44:01.993Z,21.95
2018-01-30T05:46:30.194Z,15.93
2018-01-30T05:48:58.276Z,13.43
2018-01-30T05:51:27.490Z,13.98
2018-01-30T05:53:55.695Z,13.00
2018-01-30T05:56:23.973Z,9.68
2018-01-30T05:58:52.020Z,11.65
2018-01-30T06:01:20.763Z,11.27
2018-01-30T06:03:49.195Z,12.15
2018-01-30T06:06:17.499Z,13.25
2018-01-30T06:08:45.988Z,11.63
2018-01-30T06:11:14.188Z,15.50
2018-01-30T06:13:42.475Z,13.90
2018-01-30T06:16:10.879Z,14.07
2018-01-30T06:18:39.036Z,11.15
2018-01-30T06:21:07.276Z,13.45
2018-01-30T06:23:35.274Z,15.15
2018-01-30T06:26:03.496Z,12.07
2018-01-30T06:28:31.779Z,12.98
2018-01-30T06:31:00.155Z,14.05
2018-01-30T06:33:28.339Z,15.95
2018-01-30T06:35:56.738Z,14.87
2018-01-30T06:38:24.934Z,18.10
2018-01-30T06:40:52.962Z,15.05
2018-01-30T06:43:21.130Z,13.45
2018-01-30T06:45:49.486Z,9.50
2018-01-30T06:48:18.618Z,12.13
2018-01-30T06:50:47.038Z,14.27
2018-01-30T06:53:15.733Z,13.38
2018-01-30T06:55:44.964Z,13.18
2018-01-30T06:58:13.328Z,15.70
2018-01-30T07:00:42.503Z,13.05
2018-01-30T07:03:11.009Z,13.15
2018-01-30T07:05:39.265Z,11.90
2018-01-30T07:08:07.562Z,9.88
2018-01-30T07:10:35.746Z,11.10
2018-01-30T07:13:04.046Z,10.30
2018-01-30T07:15:32.336Z,16.15
2018-01-30T07:18:00.578Z,15.98
2018-01-30T07:20:28.933Z,11.90
2018-01-30T07:22:57.373Z,16.23
2018-01-30T07:25:25.834Z,17.00
2018-01-30T07:27:53.937Z,12.85
2018-01-30T07:30:22.168Z,12.65
2018-01-30T07:32:50.377Z,14.02
2018-01-30T07:35:18.480Z,11.57
2018-01-30T07:37:46.914Z,14.93
2018-01-30T07:40:15.110Z,12.40
2018-01-30T07:42:43.513Z,12.63
2018-01-30T07:45:11.799Z,10.63
2018-01-30T07:47:39.941Z,13.88
2018-01-30T07:50:08.089Z,13.40
2018-01-30T07:52:36.293Z,25.42
2018-01-30T07:55:04.377Z,18.15
2018-01-30T07:57:32.577Z,21.10
2018-01-30T08:00:00.660Z,22.73
2018-01-30T08:02:28.856Z,17.23
2018-01-30T08:04:56.960Z,14.27
2018-01-30T08:07:25.257Z,18.77
2018-01-30T08:09:53.432Z,19.23
2018-01-30T08:12:21.831Z,21.15
2018-01-30T08:14:50.174Z,23.80
2018-01-30T08:17:18.280Z,19.08
2018-01-30T08:19:46.573Z,20.95
2018-01-30T08:22:14.968Z,16.33
2018-01-30T08:24:43.319Z,18.05
2018-01-30T08:27:11.626Z,20.27
2018-01-30T08:29:39.822Z,14.87
2018-01-30T08:32:08.210Z,11.43
2018-01-30T08:34:36.340Z,12.35
2018-01-30T08:37:04.504Z,14.38
2018-01-30T08:39:32.595Z,21.83
2018-01-30T08:42:00.792Z,21.15
2018-01-30T08:44:28.989Z,16.52
2018-01-30T08:46:57.274Z,13.55
2018-01-30T08:49:25.676Z,17.40
2018-01-30T08:51:54.074Z,16.87
2018-01-30T08:54:22.377Z,16.75
2018-01-30T08:56:50.512Z,15.30
2018-01-30T08:59:18.584Z,11.95
2018-01-30T09:01:46.632Z,15.52
2018-01-30T09:04:14.695Z,18.23
2018-01-30T09:06:42.745Z,12.40
2018-01-30T09:09:10.846Z,12.35
2018-01-30T09:11:38.856Z,11.35
2018-01-30T09:14:07.055Z,12.90
2018-01-30T09:16:35.008Z,13.23
2018-01-30T09:19:03.138Z,11.38
2018-01-30T09:21:31.240Z,13.90
2018-01-30T09:23:59.484Z,11.02
2018-01-30T09:26:27.688Z,12.05
2018-01-30T09:28:55.830Z,10.95
2018-01-30T09:31:23.956Z,9.32
2018-01-30T09:33:52.240Z,12.07
2018-01-30T09:36:20.580Z,11.55
2018-01-30T09:38:48.817Z,11.20
2018-01-30T09:41:16.805Z,15.45
2018-01-30T09:43:44.928Z,12.93
2018-01-30T09:46:12.914Z,13.07
2018-01-30T09:48:41.016Z,13.77
2018-01-30T09:51:09.066Z,14.27
2018-01-30T09:53:37.295Z,11.12
2018-01-30T09:56:05.400Z,15.65
2018-01-30T09:58:33.477Z,8.70
2018-01-30T10:01:01.439Z,11.70
2018-01-30T10:03:29.673Z,10.35
2018-01-30T10:05:57.758Z,10.05
2018-01-30T10:08:25.958Z,13.45
2018-01-30T10:10:53.918Z,10.75
2018-01-30T10:13:21.998Z,16.95
2018-01-30T10:15:49.986Z,10.75
2018-01-30T10:18:18.078Z,14.15
2018-01-30T10:20:46.006Z,13.55
2018-01-30T10:23:14.116Z,14.20
2018-01-30T10:25:42.059Z,11.73
2018-01-30T10:28:10.176Z,14.73
2018-01-30T10:30:38.216Z,13.38
2018-01-30T10:33:06.386Z,13.73
2018-01-30T10:35:34.461Z,15.68
2018-01-30T10:38:02.615Z,15.80
2018-01-30T10:40:30.740Z,14.32
2018-01-30T10:42:58.936Z,15.68
2018-01-30T10:45:27.095Z,19.15
2018-01-30T10:47:55.244Z,16.62
2018-01-30T10:50:23.428Z,17.35
2018-01-30T10:52:51.522Z,17.45
2018-01-30T10:55:19.545Z,16.77
2018-01-30T10:57:47.639Z,15.73
2018-01-30T11:00:15.622Z,17.30
2018-01-30T11:02:43.614Z,17.83
2018-01-30T11:05:11.581Z,17.20
2018-01-30T11:07:39.534Z,19.58
2018-01-30T11:10:07.579Z,19.37
2018-01-30T11:12:35.634Z,27.98
2018-01-30T11:15:03.815Z,17.45
2018-01-30T11:17:31.973Z,17.20
2018-01-30T11:20:00.188Z,23.25
2018-01-30T11:22:28.377Z,21.62
2018-01-30T11:24:56.440Z,17.30
2018-01-30T11:27:24.422Z,16.20
2018-01-30T11:29:52.556Z,23.50
2018-01-30T11:32:20.526Z,18.37
2018-01-30T11:34:48.678Z,22.23
2018-01-30T11:37:16.673Z,17.73
2018-01-30T11:39:44.732Z,22.25
2018-01-30T11:42:12.684Z,31.87
2018-01-30T11:44:40.929Z,19.73
2018-01-30T11:47:09.004Z,19.92
2018-01-30T11:49:37.104Z,16.40
2018-01-30T11:52:05.104Z,18.20
2018-01-30T11:54:33.177Z,17.90
2018-01-30T11:57:01.115Z,20.87
2018-01-30T11:59:29.230Z,15.40
2018-01-30T12:01:57.199Z,14.17
2018-01-30T12:04:25.258Z,12.90
2018-01-30T12:06:53.339Z,17.00
2018-01-30T12:09:21.655Z,23.70
2018-01-30T12:11:49.807Z,15.87
2018-01-30T12:14:18.057Z,14.13
2018-01-30T12:16:46.041Z,15.10
2018-01-30T12:19:14.070Z,11.73
2018-01-30T12:21:42.120Z,17.17
2018-01-30T12:24:10.273Z,14.23
2018-01-30T12:26:38.447Z,15.73
2018-01-30T12:29:06.538Z,15.57
2018-01-30T12:31:34.889Z,15.75
2018-01-30T12:34:03.179Z,12.13
2018-01-30T12:36:31.370Z,16.05
2018-01-30T12:38:59.675Z,20.15
2018-01-30T12:41:28.063Z,14.52
2018-01-30T12:43:56.166Z,14.50
2018-01-30T12:46:24.355Z,14.60
2018-01-30T12:48:52.569Z,15.73
2018-01-30T12:51:20.521Z,11.48
2018-01-30T12:53:48.638Z,11.95
2018-01-30T12:56:16.842Z,15.30
2018-01-30T12:58:44.919Z,14.07
2018-01-30T13:01:13.020Z,11.80
2018-01-30T13:03:41.104Z,13.88
2018-01-30T13:06:09.400Z,18.52
2018-01-30T13:08:37.708Z,14.43
2018-01-30T13:11:05.900Z,13.25
2018-01-30T13:13:34.095Z,21.35
2018-01-30T13:16:02.147Z,13.95
2018-01-30T13:18:30.181Z,12.65
2018-01-30T13:20:58.221Z,14.98
2018-01-30T13:23:26.229Z,13.73
2018-01-30T13:25:54.219Z,16.83
2018-01-30T13:28:22.238Z,16.70
2018-01-30T13:30:50.231Z,14.02
2018-01-30T13:33:18.213Z,9.60
2018-01-30T13:35:46.143Z,12.27
2018-01-30T13:38:14.149Z,12.90
2018-01-30T13:40:42.108Z,11.40
2018-01-30T13:43:10.215Z,14.55
2018-01-30T13:45:38.332Z,11.50
2018-01-30T13:48:06.331Z,11.50
2018-01-30T13:50:34.383Z,6.68
2018-01-30T13:53:02.528Z,7.03
2018-01-30T13:55:30.480Z,9.73
2018-01-30T13:57:58.418Z,8.68
2018-01-30T14:00:26.407Z,9.20
2018-01-30T14:02:54.394Z,13.27
2018-01-30T14:05:22.395Z,10.75
2018-01-30T14:07:50.379Z,6.70
2018-01-30T14:10:18.376Z,11.80
2018-01-30T14:12:46.301Z,8.18
2018-01-30T14:15:14.270Z,8.02
2018-01-30T14:17:42.445Z,8.88
2018-01-30T14:20:10.418Z,7.22
2018-01-30T14:22:38.371Z,16.33
2018-01-30T14:25:06.559Z,18.27
2018-01-30T14:27:34.758Z,12.32
2018-01-30T14:30:02.775Z,7.43
2018-01-30T14:32:30.766Z,7.82
2018-01-30T14:34:58.776Z,7.12
2018-01-30T14:37:26.753Z,7.80
2018-01-30T14:39:54.739Z,9.77
2018-01-30T14:42:22.778Z,9.15
2018-01-30T14:44:50.728Z,11.32
2018-01-30T14:47:18.752Z,8.75
2018-01-30T14:49:46.751Z,9.60
2018-01-30T14:52:14.740Z,11.80
2018-01-30T14:54:42.912Z,6.62
2018-01-30T14:57:10.908Z,14.07
2018-01-30T14:59:38.988Z,8.40
2018-01-30T15:02:07.140Z,9.63
2018-01-30T15:04:35.309Z,7.80
2018-01-30T15:07:03.526Z,6.93
2018-01-30T15:09:31.478Z,8.13
2018-01-30T15:11:59.499Z,10.52
2018-01-30T15:14:27.462Z,7.18
2018-01-30T15:16:55.470Z,9.65
2018-01-30T15:19:23.426Z,7.65
2018-01-30T15:21:51.463Z,7.37
2018-01-30T15:24:19.398Z,7.70
2018-01-30T15:26:47.424Z,7.87
2018-01-30T15:29:15.536Z,9.70
2018-01-30T15:31:43.700Z,12.88
2018-01-30T15:34:11.814Z,7.47
2018-01-30T15:36:39.938Z,7.37
2018-01-30T15:39:08.027Z,11.73
2018-01-30T15:41:36.174Z,7.43
2018-01-30T15:44:04.193Z,6.37
2018-01-30T15:46:32.256Z,12.15
2018-01-30T15:49:00.301Z,13.70
2018-01-30T15:51:28.347Z,8.88
2018-01-30T15:53:56.341Z,13.93
2018-01-30T15:56:24.336Z,9.32
2018-01-30T15:58:52.341Z,5.65
2018-01-30T16:01:20.339Z,11.60
2018-01-30T16:03:48.316Z,12.20
2018-01-30T16:06:16.491Z,11.43
2018-01-30T16:08:44.626Z,13.70
2018-01-30T16:11:12.770Z,14.75
2018-01-30T16:13:40.881Z,23.08
2018-01-30T16:16:09.081Z,20.35
2018-01-30T16:18:37.046Z,22.25
2018-01-30T16:21:05.115Z,19.27
2018-01-30T16:23:33.092Z,20.80
2018-01-30T16:26:01.130Z,16.65
2018-01-30T16:28:29.185Z,20.50
2018-01-30T16:30:57.312Z,16.52
2018-01-30T16:33:25.338Z,17.10
2018-01-30T16:35:53.462Z,15.05
2018-01-30T16:38:21.439Z,23.12
2018-01-30T16:40:49.598Z,15.32
2018-01-30T16:43:17.541Z,16.12
2018-01-30T16:45:45.686Z,16.55
2018-01-30T16:48:13.667Z,14.23
2018-01-30T16:50:41.829Z,19.60
2018-01-30T16:53:09.905Z,12.18
2018-01-30T16:55:37.982Z,12.98
2018-01-30T16:58:06.046Z,11.05
2018-01-30T17:00:34.195Z,16.95
2018-01-30T17:03:02.216Z,12.40
2018-01-30T17:05:30.237Z,14.57
2018-01-30T17:07:58.437Z,15.15
2018-01-30T17:10:26.536Z,12.93
2018-01-30T17:12:54.716Z,13.45
2018-01-30T17:15:22.814Z,16.40
2018-01-30T17:17:51.036Z,13.73
2018-01-30T17:20:19.320Z,16.10
2018-01-30T17:22:47.498Z,20.67
2018-01-30T17:25:15.618Z,17.60
2018-01-30T17:27:43.800Z,18.52
2018-01-30T17:30:11.878Z,18.83
2018-01-30T17:32:40.179Z,19.25
2018-01-30T17:35:08.478Z,17.87
2018-01-30T17:37:36.778Z,17.10
2018-01-30T17:40:04.957Z,19.05
2018-01-30T17:42:33.116Z,18.90
2018-01-30T17:45:01.365Z,18.33
2018-01-30T17:47:29.651Z,16.50
2018-01-30T17:49:57.762Z,23.23
2018-01-30T17:52:25.938Z,19.60
2018-01-30T17:54:54.039Z,21.27
2018-01-30T17:57:22.219Z,23.85
2018-01-30T17:59:50.419Z,18.45
2018-01-30T18:02:18.627Z,22.70
2018-01-30T18:04:46.800Z,23.48
2018-01-30T18:07:15.100Z,22.08
2018-01-30T18:09:43.200Z,27.05
2018-01-30T18:12:11.479Z,21.23
2018-01-30T18:14:39.960Z,27.02
2018-01-30T18:17:08.279Z,23.52
2018-01-30T18:19:36.320Z,22.87
2018-01-30T18:22:04.761Z,21.62
2018-01-30T18:24:32.850Z,22.73
2018-01-30T18:27:01.049Z,17.30
2018-01-30T18:29:29.153Z,22.92
2018-01-30T18:31:57.354Z,25.35
2018-01-30T18:34:25.325Z,23.65
2018-01-30T18:36:53.515Z,24.83
2018-01-30T18:39:21.621Z,34.30
2018-01-30T18:41:49.873Z,28.80
2018-01-30T18:44:18.012Z,35.67
2018-01-30T18:46:46.213Z,31.92
2018-01-30T18:49:15.112Z,37.92
2018-01-30T18:51:43.519Z,27.08
2018-01-30T18:54:11.821Z,26.95
2018-01-30T18:56:40.122Z,33.85
2018-01-30T18:59:08.199Z,27.52
2018-01-30T19:01:36.510Z,21.08
2018-01-30T19:04:04.599Z,30.55
2018-01-30T19:06:32.799Z,26.83
2018-01-30T19:09:00.899Z,26.30
2018-01-30T19:11:29.186Z,27.35
2018-01-30T19:13:57.359Z,35.35
2018-01-30T19:16:25.580Z,26.75
2018-01-30T19:18:53.759Z,29.30
2018-01-30T19:21:22.780Z,35.03
2018-01-30T19:23:50.878Z,32.35
2018-01-30T19:26:19.159Z,27.55
2018-01-30T19:28:47.459Z,33.33
2018-01-30T19:31:15.658Z,32.38
2018-01-30T19:33:43.959Z,30.27
2018-01-30T19:36:13.086Z,36.63
2018-01-30T19:38:41.259Z,31.02
2018-01-30T19:41:09.358Z,36.70
2018-01-30T19:43:37.676Z,44.92
2018-01-30T19:46:05.739Z,41.10
2018-01-30T19:48:33.944Z,36.95
2018-01-30T19:51:01.924Z,34.65
2018-01-30T19:53:30.130Z,37.22
2018-01-30T19:55:58.309Z,39.10
2018-01-30T19:58:26.510Z,32.90
2018-01-30T20:00:54.809Z,32.70
2018-01-30T20:03:23.090Z,31.67
2018-01-30T20:05:51.290Z,37.03
2018-01-30T20:08:19.408Z,31.23
2018-01-30T20:10:47.354Z,33.85
2018-01-30T20:13:15.473Z,33.58
2018-01-30T20:15:43.670Z,27.27
2018-01-30T20:18:11.872Z,28.30
2018-01-30T20:20:40.052Z,25.62
2018-01-30T20:23:08.251Z,34.15
2018-01-30T20:25:36.452Z,26.08
2018-01-30T20:28:04.532Z,29.83
2018-01-30T20:30:32.467Z,31.73
2018-01-30T20:33:00.716Z,30.02
2018-01-30T20:35:28.917Z,32.63
2018-01-30T20:37:57.120Z,38.33
2018-01-30T20:40:25.315Z,31.67
2018-01-30T20:42:53.495Z,30.42
2018-01-30T20:45:21.595Z,38.47
2018-01-30T20:47:49.684Z,33.72
2018-01-30T20:50:17.883Z,29.20
2018-01-30T20:52:46.063Z,30.05
2018-01-30T20:55:14.165Z,31.27
2018-01-30T20:57:42.263Z,27.23
2018-01-30T21:00:10.443Z,27.48
2018-01-30T21:02:38.644Z,30.45
2018-01-30T21:05:06.743Z,31.73
2018-01-30T21:07:34.923Z,37.42
2018-01-30T21:10:03.124Z,28.60
2018-01-30T21:12:31.223Z,34.05
2018-01-30T21:14:59.426Z,34.42
2018-01-30T21:17:27.603Z,28.10
2018-01-30T21:19:55.799Z,33.58
2018-01-30T21:22:23.999Z,26.10
2018-01-30T21:24:52.139Z,25.30
2018-01-30T21:27:20.382Z,30.70
2018-01-30T21:29:48.477Z,27.77
2018-01-30T21:32:16.647Z,28.00
2018-01-30T21:34:44.952Z,23.15
2018-01-30T21:37:13.153Z,24.55
2018-01-30T21:39:41.356Z,25.30
2018-01-30T21:42:09.551Z,23.62
2018-01-30T21:44:37.748Z,24.45
2018-01-30T21:47:06.049Z,20.85
2018-01-30T21:49:34.226Z,17.30
2018-01-30T21:52:02.307Z,19.67
2018-01-30T21:54:30.735Z,19.98
2018-01-30T21:56:58.964Z,21.10
2018-01-30T21:59:27.316Z,18.15
2018-01-30T22:01:55.516Z,20.50
2018-01-30T22:04:23.907Z,22.40
2018-01-30T22:06:52.122Z,23.10
2018-01-30T22:09:20.400Z,26.60
2018-01-30T22:11:48.608Z,16.02
2018-01-30T22:14:16.769Z,18.52
2018-01-30T22:16:45.104Z,26.33
2018-01-30T22:19:13.279Z,21.37
2018-01-30T22:21:41.382Z,20.20
2018-01-30T22:24:10.523Z,19.27
2018-01-30T22:26:38.695Z,21.87
2018-01-30T22:29:06.829Z,23.27
2018-01-30T22:31:35.081Z,19.40
2018-01-30T22:34:03.259Z,20.67
2018-01-30T22:36:31.573Z,20.58
2018-01-30T22:38:59.563Z,20.52
2018-01-30T22:41:27.788Z,16.60
2018-01-30T22:43:55.952Z,18.77
2018-01-30T22:46:24.356Z,16.58
